Flight Track Log - Related Links

Times and Time Zones

All times are in EDT time to prevent confusion due to time zone crossing. See the SWA1533 flight status page for this flight to view local times or setup timezone preferences in your user account.

Time Position Orientation Groundspeed Altitude Reporting Facility
EDT Latitude Longitude Course Direction KTS MPH feet Rate Location/Type
Sat 11:05:10 PM 39.8667 -104.6167 75° East 256 295 7,900  Level Denver TRACON
Sat 11:06:10 PM 39.8167 -104.5333 128° Southeast 305 351 11,500 3,500 Climbing Denver TRACON
Sat 11:07:10 PM 39.7667 -104.4333 123° Southeast 309 356 14,900 2,700 Climbing Denver TRACON
Sat 11:08:10 PM 39.7167 -104.3333 123° Southeast 347 399 16,900 2,250 Climbing Denver TRACON
Sat 11:09:26 PM 39.6556 -104.1847 118° Southeast 389 448 20,000 2,540 Climbing Denver Center
Sat 11:10:00 PM 39.9977 -104.0027 75° East  Level Estimated
Sat 11:10:27 PM 39.6342 -104.0297 100° East 411 473 22,700  Level Denver Center
Sat 11:11:28 PM 39.6278 -103.8772 93° East 419 482 23,900 1,131 Climbing Denver Center
Sat 11:12:29 PM 39.6225 -103.7267 93° East 420 483 25,000 1,220 Climbing Denver Center
Sat 11:13:31 PM 39.6208 -103.5703 91° East 432 497 26,400 976 Climbing Denver Center
Sat 11:14:32 PM 39.6261 -103.4108 87° East 442 509 27,000 295 Climbing Denver Center
Sat 11:15:33 PM 39.6331 -103.2536 87° East 440 506 27,000 634 Level Denver Center
Sat 11:16:35 PM 39.6392 -103.0931 87° East 445 512 28,300 1,610 Climbing Denver Center
Sat 11:17:36 PM 39.6522 -102.8964 85° East 469 540 30,300 1,328 Climbing Denver Center
Sat 11:18:37 PM 39.6803 -102.7319 77° East 468 539 31,000 344 Climbing Denver Center
Sat 11:19:38 PM 39.7253 -102.5922 67° East 470 541 31,000 836 Level Denver Center
Sat 11:20:39 PM 39.7808 -102.4167 68° East 471 542 32,700 1,561 Climbing Denver Center
Sat 11:21:41 PM 39.8281 -102.2672 68° East 469 540 34,200 1,122 Climbing Denver Center
Sat 11:22:42 PM 39.8819 -102.0950 68° East 460 529 35,000 393 Climbing Denver Center
Sat 11:23:43 PM 39.9272 -101.9514 68° East 451 519 35,000 49 Level Denver Center
Sat 11:24:44 PM 39.9728 -101.8036 68° East 458 527 35,100 885 Climbing Denver Center
Sat 11:25:45 PM 40.0258 -101.6328 68° East 457 526 36,800 1,426 Climbing Denver Center
Sat 11:26:46 PM 40.0708 -101.4844 68° East 460 529 38,000 1,073 Climbing Denver Center
Sat 11:27:48 PM 40.1233 -101.3111 68° East 461 531 39,000 488 Climbing Denver Center
Sat 11:28:49 PM 40.1689 -101.1606 68° East 465 535 39,000  Level Denver Center
Sat 11:29:50 PM 40.2133 -101.0128 68° East 459 528 39,000  Level Denver Center
Sat 11:30:51 PM 40.2650 -100.8394 69° East 459 528 39,000  Level Denver Center
Sat 11:31:52 PM 40.3078 -100.6956 69° East 448 516 39,000  Level Denver Center
Sat 11:32:53 PM 40.3575 -100.5269 69° East 447 514 39,000  Level Denver Center
Sat 11:33:55 PM 40.4006 -100.3833 68° East 445 512 39,000  Level Denver Center
Sat 11:34:56 PM 40.4425 -100.2369 69° East 449 517 39,000  Level Denver Center
Sat 11:35:57 PM 40.4925 -100.0661 69° East 450 518 39,000  Level Denver Center
Sat 11:36:58 PM 40.5356 -99.9194 69° East 451 519 39,000  Level Denver Center
Sat 11:37:59 PM 40.5803 -99.7614 70° East 451 519 39,000  Level Denver Center
Sat 11:39:00 PM 40.6242 -99.6075 69° East 451 519 39,000 -128 Level Denver Center
Sat 11:39:33 PM 40.6517 -99.5161 68° East 453 521 38,800 -638 Descending Minneapolis Center
Sat 11:40:34 PM 40.6861 -99.3914 70° East 454 522 38,000 -934 Descending Minneapolis Center
Sat 11:41:35 PM 40.7392 -99.2047 69° East 454 522 36,900 -984 Descending Minneapolis Center
Sat 11:42:36 PM 40.7789 -99.0594 70° East 460 529 36,000 -934 Descending Minneapolis Center
Sat 11:43:37 PM 40.8297 -98.8694 70° East 459 528 35,000 -492 Descending Minneapolis Center
Sat 11:44:38 PM 40.8719 -98.7161 70° East 449 517 35,000  Level Minneapolis Center
Sat 11:45:38 PM 40.9147 -98.5631 70° East 445 512 35,000  Level Minneapolis Center
Sat 11:46:39 PM 40.9589 -98.4058 70° East 440 506 35,000  Level Minneapolis Center
Sat 11:47:40 PM 40.9994 -98.2533 71° East 441 507 35,000  Level Minneapolis Center
Sat 11:48:41 PM 41.0319 -98.1322 70° East 439 505 35,000 -98 Level Minneapolis Center
Sat 11:49:42 PM 41.0806 -97.9494 71° East 440 506 34,800 -1,433 Descending Minneapolis Center
Sat 11:50:55 PM 41.1214 -97.7956 71° East 441 507 31,800 -2,910 Descending Minneapolis Center
Sat 11:51:56 PM 41.1714 -97.6078 70° East 448 516 28,300 -2,951 Descending Minneapolis Center
Sat 11:52:57 PM 41.2117 -97.4569 70° East 439 505 25,800 -2,149 Descending Minneapolis Center
Sat 11:54:10 PM 41.2489 -97.3133 71° East 425 489 23,500 -2,239 Descending Minneapolis Center
Sat 11:55:11 PM 41.2928 -97.1461 71° East 404 465 20,800 -2,430 Descending Minneapolis Center
Sat 11:56:11 PM 41.3264 -97.0128 71° East 387 445 18,600 -2,132 Descending Minneapolis Center
Sat 11:57:12 PM 41.3589 -96.8844 71° East 369 425 16,500 -1,377 Descending Minneapolis Center
Sat 11:58:13 PM 41.3497 -96.7544 95° East 360 414 15,800 -1,869 Descending Minneapolis Center
Sat 11:59:14 PM 41.3525 -96.6286 88° East 360 414 12,700 -3,049 Descending Minneapolis Center
Sun 12:00:15 AM 41.3850 -96.4792 74° East 352 405 9,600 -2,410 Descending Minneapolis Center
Sun 12:01:16 AM 41.3836 -96.3614 91° East 324 373 7,800 -1,736 Descending Minneapolis Center
Sun 12:02:16 AM 41.3822 -96.2550 91° East 300 345 6,100 -1,686 Descending Minneapolis Center
Sun 12:03:17 AM 41.3775 -96.1533 94° East 284 327 4,400 -1,131 Descending Minneapolis Center
Sun 12:04:18 AM 41.3747 -96.0619 92° East 259 298 3,800 -595 Descending Minneapolis Center
Sun 12:05:18 AM 41.3722 -95.9942 93° East 235 270 3,200 -893 Descending Minneapolis Center
Sun 12:06:19 AM 41.3578 -95.9478 113° Southeast 178 205 2,000 -885 Descending Minneapolis Center
Sun 12:07:20 AM 41.3297 -95.9206 144° Southeast 142 163 1,400 -590 Descending Minneapolis Center
Sun 12:09:00 AM 41.3032 -95.8941 105° East  Level Estimated

Login

Don't have an account? Register now (free) for customized features, flight alerts, and more!